Queen Anne, Maryland
Current Conditions -  °F | °C
As of 10:55 AM on Thursday 27 Nov 2014 (Local Time) from KESN Reporting Station
Overcast Overcast  
Wind Chill: 38°   Ceiling: 300
Heat Index: 41°   Visibility: 10mi
Dew Point: 34°   Wind: 5mph
Humidity: 76%   Direction: 360°N
Pressure: 30.09"   Gusts: NA
Location:  38.92°N, 75.96°W
Report Text: KESN 271555Z 36004KT 10SM BKN0037 OVC046 05/01 A3009
Loading
Personal Weather Stations






























Interactive Weather Map New forecast layout! Learn more

10-Day Weather Forecast

Advertisements
Track Severe Weather on mobile